createdAt,value
2019-05-18T00:00:40.891Z,0.00
2019-05-18T00:01:40.898Z,0.00
2019-05-18T00:02:40.885Z,0.00
2019-05-18T00:03:40.876Z,0.00
2019-05-18T00:04:40.855Z,0.00
2019-05-18T00:05:40.842Z,0.00
2019-05-18T00:06:40.834Z,0.00
2019-05-18T00:07:40.835Z,0.00
2019-05-18T00:08:40.820Z,0.00
2019-05-18T00:09:40.796Z,0.00
2019-05-18T00:10:40.778Z,0.00
2019-05-18T00:11:40.779Z,0.00
2019-05-18T00:12:40.800Z,0.00
2019-05-18T00:13:40.748Z,0.00
2019-05-18T00:14:40.801Z,0.00
2019-05-18T00:15:40.726Z,0.00
2019-05-18T00:16:40.726Z,0.00
2019-05-18T00:17:40.697Z,0.00
2019-05-18T00:18:40.694Z,0.00
2019-05-18T00:19:40.689Z,0.00
2019-05-18T00:20:40.686Z,0.00
2019-05-18T00:21:40.654Z,0.00
2019-05-18T00:22:40.659Z,0.00
2019-05-18T00:23:40.635Z,0.00
2019-05-18T00:24:40.623Z,0.00
2019-05-18T00:25:40.627Z,0.00
2019-05-18T00:26:40.638Z,0.00
2019-05-18T00:27:40.591Z,0.00
2019-05-18T00:28:40.581Z,0.00
2019-05-18T00:29:40.566Z,0.00
2019-05-18T00:30:40.557Z,0.00
2019-05-18T00:31:40.557Z,0.00
2019-05-18T00:32:40.569Z,0.00
2019-05-18T00:33:40.521Z,0.00
2019-05-18T00:34:40.519Z,0.00
2019-05-18T00:35:40.504Z,0.00
2019-05-18T00:36:40.491Z,0.00
2019-05-18T00:37:40.497Z,0.00
2019-05-18T00:38:40.464Z,0.00
2019-05-18T00:39:40.453Z,0.00
2019-05-18T00:40:40.440Z,0.00
2019-05-18T00:41:40.446Z,0.00
2019-05-18T00:42:40.434Z,0.00
2019-05-18T00:43:40.401Z,0.00
2019-05-18T00:44:40.402Z,0.00
2019-05-18T00:45:40.383Z,0.00
2019-05-18T00:46:40.378Z,0.00
2019-05-18T00:47:42.098Z,0.00
2019-05-18T00:48:40.394Z,0.00
2019-05-18T00:49:40.337Z,0.00
2019-05-18T00:50:40.327Z,0.00
2019-05-18T00:51:40.317Z,0.00
2019-05-18T00:52:40.303Z,0.00
2019-05-18T00:53:40.291Z,0.00
2019-05-18T00:54:40.295Z,0.00
2019-05-18T00:55:40.296Z,0.00
2019-05-18T00:56:40.274Z,0.00
2019-05-18T00:57:40.267Z,0.00
2019-05-18T00:58:40.235Z,0.00
2019-05-18T00:59:40.225Z,0.00
2019-05-18T01:00:40.227Z,0.00
2019-05-18T01:01:40.209Z,0.00
2019-05-18T01:02:40.216Z,0.00
2019-05-18T01:03:40.184Z,0.00
2019-05-18T01:04:40.186Z,0.00
2019-05-18T01:05:40.161Z,0.00
2019-05-18T01:06:40.163Z,0.00
2019-05-18T01:07:40.160Z,0.00
2019-05-18T01:08:40.134Z,0.00
2019-05-18T01:09:40.119Z,0.00
2019-05-18T01:10:40.121Z,0.00
2019-05-18T01:11:40.105Z,0.00
2019-05-18T01:12:40.087Z,0.00
2019-05-18T01:13:40.066Z,0.00
2019-05-18T01:14:40.088Z,0.00
2019-05-18T01:15:40.071Z,0.00
2019-05-18T01:16:40.051Z,0.00
2019-05-18T01:17:40.041Z,0.00
2019-05-18T01:18:40.012Z,0.00
2019-05-18T01:19:40.000Z,0.00
2019-05-18T01:20:40.014Z,0.00
2019-05-18T01:21:39.989Z,0.00
2019-05-18T01:22:39.965Z,0.00
2019-05-18T01:23:39.967Z,0.00
2019-05-18T01:24:39.942Z,0.00
2019-05-18T01:25:39.931Z,0.00
2019-05-18T01:26:39.955Z,0.00
2019-05-18T01:27:39.913Z,0.00
2019-05-18T01:28:39.900Z,0.00
2019-05-18T01:29:39.902Z,0.00
2019-05-18T01:30:39.893Z,0.00
2019-05-18T01:31:39.862Z,0.00
2019-05-18T01:32:39.852Z,0.00
2019-05-18T01:33:39.841Z,0.00
2019-05-18T01:34:39.831Z,0.00
2019-05-18T01:35:39.866Z,0.00
2019-05-18T01:36:39.821Z,0.00
2019-05-18T01:37:39.800Z,0.00
2019-05-18T01:38:39.787Z,0.00
2019-05-18T01:39:39.772Z,0.00
2019-05-18T01:40:39.762Z,0.00
2019-05-18T01:41:39.774Z,0.00
2019-05-18T01:42:39.739Z,0.00
2019-05-18T01:43:39.774Z,0.00
2019-05-18T01:44:39.718Z,0.00
2019-05-18T01:45:39.708Z,0.00
2019-05-18T01:46:39.699Z,0.00
2019-05-18T01:47:39.717Z,0.00
2019-05-18T01:48:39.671Z,0.00
2019-05-18T01:49:39.690Z,0.00
2019-05-18T01:50:39.649Z,0.00
2019-05-18T01:51:39.670Z,0.00
2019-05-18T01:52:39.626Z,0.00
2019-05-18T01:53:39.643Z,0.00
2019-05-18T01:54:39.602Z,0.00
2019-05-18T01:55:39.605Z,0.00
2019-05-18T01:56:39.581Z,0.00
2019-05-18T01:57:39.575Z,0.00
2019-05-18T01:58:39.556Z,0.00
2019-05-18T01:59:39.574Z,0.00
2019-05-18T02:00:39.538Z,0.00
2019-05-18T02:01:39.564Z,0.00
2019-05-18T02:02:39.515Z,0.00
2019-05-18T02:03:39.498Z,0.00
2019-05-18T02:04:39.504Z,0.00
2019-05-18T02:05:39.494Z,0.00
2019-05-18T02:06:39.466Z,0.00
2019-05-18T02:07:39.473Z,0.00
2019-05-18T02:08:39.449Z,0.00
2019-05-18T02:09:39.471Z,0.00
2019-05-18T02:10:39.441Z,0.00
2019-05-18T02:11:39.417Z,0.00
2019-05-18T02:12:39.412Z,0.00
2019-05-18T02:13:39.392Z,0.00
2019-05-18T02:14:39.379Z,0.00
2019-05-18T02:15:39.397Z,0.00
2019-05-18T02:16:39.367Z,0.00
2019-05-18T02:17:39.351Z,0.00
2019-05-18T02:18:39.336Z,0.00
2019-05-18T02:19:39.364Z,0.00
2019-05-18T02:20:39.322Z,0.00
2019-05-18T02:21:39.344Z,0.00
2019-05-18T02:22:39.297Z,0.00
2019-05-18T02:23:39.294Z,0.00
2019-05-18T02:24:39.265Z,0.00
2019-05-18T02:25:39.260Z,0.00
2019-05-18T02:26:39.268Z,0.00
2019-05-18T02:27:39.233Z,0.00
2019-05-18T02:28:39.228Z,0.00
2019-05-18T02:29:39.240Z,0.00
2019-05-18T02:30:39.199Z,0.00
2019-05-18T02:31:39.208Z,0.00
2019-05-18T02:32:39.208Z,0.00
2019-05-18T02:33:39.167Z,0.00
2019-05-18T02:34:39.154Z,0.00
2019-05-18T02:35:39.166Z,0.00
2019-05-18T02:36:39.148Z,0.00
2019-05-18T02:37:39.147Z,0.00
2019-05-18T02:38:39.117Z,0.00
2019-05-18T02:39:39.099Z,0.00
2019-05-18T02:40:39.086Z,0.00
2019-05-18T02:41:39.078Z,0.00
2019-05-18T02:42:39.069Z,0.00
2019-05-18T02:43:39.073Z,0.00
2019-05-18T02:44:39.045Z,0.00
2019-05-18T02:45:39.042Z,0.00
2019-05-18T02:46:39.062Z,0.00
2019-05-18T02:47:39.011Z,0.00
2019-05-18T02:48:49.631Z,0.00
2019-05-18T02:49:39.995Z,0.00
2019-05-18T02:50:38.980Z,0.00
2019-05-18T02:51:38.967Z,0.00
2019-05-18T02:52:38.956Z,0.00
2019-05-18T02:53:38.957Z,0.00
2019-05-18T02:54:38.947Z,0.00
2019-05-18T02:55:38.955Z,0.00
2019-05-18T02:56:38.914Z,0.00
2019-05-18T02:57:46.630Z,0.00
2019-05-18T02:58:38.918Z,0.00
2019-05-18T02:59:38.891Z,0.00
2019-05-18T03:00:38.885Z,0.00
2019-05-18T03:01:38.862Z,0.00
2019-05-18T03:02:38.866Z,0.00
2019-05-18T03:03:38.833Z,0.00
2019-05-18T03:04:38.824Z,0.00
2019-05-18T03:05:38.812Z,0.00
2019-05-18T03:06:38.817Z,4.00
2019-05-18T03:07:38.829Z,4.00
2019-05-18T03:08:38.806Z,0.00
2019-05-18T03:09:38.763Z,0.00
2019-05-18T03:10:38.748Z,4.00
2019-05-18T03:11:38.742Z,0.00
2019-05-18T03:12:38.726Z,4.00
2019-05-18T03:13:38.752Z,0.00
2019-05-18T03:14:38.708Z,4.00
2019-05-18T03:15:38.696Z,0.00
2019-05-18T03:16:38.686Z,4.00
2019-05-18T03:17:38.682Z,4.00
2019-05-18T03:18:38.659Z,4.00
2019-05-18T03:19:38.684Z,4.00
2019-05-18T03:20:38.646Z,4.00
2019-05-18T03:21:38.651Z,8.00
2019-05-18T03:22:38.622Z,4.00
2019-05-18T03:23:38.615Z,4.00
2019-05-18T03:24:38.604Z,8.00
2019-05-18T03:25:38.623Z,8.00
2019-05-18T03:26:38.571Z,8.00
2019-05-18T03:27:38.564Z,8.00
2019-05-18T03:28:38.598Z,12.00
2019-05-18T03:29:38.552Z,12.00
2019-05-18T03:30:38.549Z,12.00
2019-05-18T03:31:38.543Z,8.00
2019-05-18T03:32:38.654Z,12.00
2019-05-18T03:33:38.511Z,16.00
2019-05-18T03:34:38.498Z,20.00
2019-05-18T03:35:38.471Z,16.00
2019-05-18T03:36:38.497Z,16.00
2019-05-18T03:37:38.479Z,16.00
2019-05-18T03:38:38.459Z,24.00
2019-05-18T03:39:38.443Z,24.00
2019-05-18T03:40:38.424Z,20.00
2019-05-18T03:41:38.448Z,24.00
2019-05-18T03:42:38.394Z,32.00
2019-05-18T03:43:38.421Z,32.00
2019-05-18T03:44:38.404Z,28.00
2019-05-18T03:45:38.395Z,28.00
2019-05-18T03:46:38.348Z,40.00
2019-05-18T03:47:38.347Z,44.00
2019-05-18T03:48:38.326Z,40.00
2019-05-18T03:49:38.327Z,36.00
2019-05-18T03:50:38.313Z,44.00
2019-05-18T03:51:38.294Z,52.00
2019-05-18T03:52:38.281Z,44.00
2019-05-18T03:53:38.313Z,44.00
2019-05-18T03:54:38.281Z,52.00
2019-05-18T03:55:38.246Z,64.00
2019-05-18T03:56:38.247Z,60.00
2019-05-18T03:57:38.225Z,52.00
2019-05-18T03:58:38.251Z,64.00
2019-05-18T03:59:38.207Z,76.00
2019-05-18T04:00:38.211Z,64.00
2019-05-18T04:01:38.187Z,64.00
2019-05-18T04:02:38.197Z,76.00
2019-05-18T04:03:38.161Z,88.00
2019-05-18T04:04:38.148Z,76.00
2019-05-18T04:05:38.137Z,76.00
2019-05-18T04:06:38.141Z,88.00
2019-05-18T04:07:38.112Z,100.00
2019-05-18T04:08:38.133Z,96.00
2019-05-18T04:09:38.092Z,92.00
2019-05-18T04:10:38.093Z,108.00
2019-05-18T04:11:38.092Z,120.00
2019-05-18T04:12:38.072Z,116.00
2019-05-18T04:13:38.060Z,104.00
2019-05-18T04:14:38.043Z,116.00
2019-05-18T04:15:38.025Z,140.00
2019-05-18T04:16:38.032Z,136.00
2019-05-18T04:17:38.006Z,124.00
2019-05-18T04:18:38.010Z,132.00
2019-05-18T04:19:46.111Z,144.00
2019-05-18T04:20:38.974Z,156.00
2019-05-18T04:21:37.974Z,144.00
2019-05-18T04:22:37.960Z,140.00
2019-05-18T04:23:37.954Z,156.00
2019-05-18T04:24:37.942Z,180.00
2019-05-18T04:25:37.916Z,168.00
2019-05-18T04:26:37.923Z,156.00
2019-05-18T04:27:37.893Z,176.00
2019-05-18T04:28:37.886Z,200.00
2019-05-18T04:29:37.914Z,188.00
2019-05-18T04:30:37.883Z,172.00
2019-05-18T04:31:37.846Z,196.00
2019-05-18T04:32:37.833Z,224.00
2019-05-18T04:33:37.824Z,216.00
2019-05-18T04:34:37.816Z,196.00
2019-05-18T04:35:37.817Z,208.00
2019-05-18T04:36:37.823Z,236.00
2019-05-18T04:37:37.783Z,244.00
2019-05-18T04:38:37.766Z,224.00
2019-05-18T04:39:37.756Z,232.00
2019-05-18T04:40:37.751Z,252.00
2019-05-18T04:41:37.768Z,272.00
2019-05-18T04:42:37.733Z,248.00
2019-05-18T04:43:37.710Z,256.00
2019-05-18T04:44:37.706Z,284.00
2019-05-18T04:45:37.689Z,308.00
2019-05-18T04:46:37.677Z,292.00
2019-05-18T04:47:37.711Z,268.00
2019-05-18T04:48:37.706Z,320.00
2019-05-18T04:49:37.644Z,344.00
2019-05-18T04:50:37.644Z,332.00
2019-05-18T04:51:37.625Z,328.00
2019-05-18T04:52:37.621Z,344.00
2019-05-18T04:53:37.611Z,352.00
2019-05-18T04:54:37.596Z,388.00
2019-05-18T04:55:37.581Z,376.00
2019-05-18T04:56:37.567Z,364.00
2019-05-18T04:57:37.563Z,372.00
2019-05-18T04:58:37.561Z,412.00
2019-05-18T04:59:37.543Z,436.00
2019-05-18T05:00:37.533Z,432.00
2019-05-18T05:01:37.515Z,392.00
2019-05-18T05:02:37.499Z,408.00
2019-05-18T05:03:37.486Z,452.00
2019-05-18T05:04:37.491Z,472.00
2019-05-18T05:05:37.464Z,460.00
2019-05-18T05:06:37.483Z,504.00
2019-05-18T05:07:37.447Z,624.00
2019-05-18T05:08:37.496Z,648.00
2019-05-18T05:09:37.421Z,696.00
2019-05-18T05:10:37.420Z,752.00
2019-05-18T05:11:37.406Z,736.00
2019-05-18T05:12:37.395Z,748.00
2019-05-18T05:13:37.373Z,768.00
2019-05-18T05:14:37.362Z,720.00
2019-05-18T05:15:37.377Z,640.00
2019-05-18T05:16:37.340Z,604.00
2019-05-18T05:17:37.402Z,588.00
2019-05-18T05:18:37.440Z,632.00
2019-05-18T05:19:37.306Z,748.00
2019-05-18T05:20:37.305Z,912.00
2019-05-18T05:21:37.330Z,928.00
2019-05-18T05:22:37.277Z,872.00
2019-05-18T05:23:37.261Z,816.00
2019-05-18T05:24:37.278Z,836.00
2019-05-18T05:25:37.239Z,784.00
2019-05-18T05:26:39.490Z,896.00
2019-05-18T05:27:37.214Z,1136.00
2019-05-18T05:28:37.220Z,1224.00
2019-05-18T05:29:37.203Z,1072.00
2019-05-18T05:30:37.196Z,1012.00
2019-05-18T05:31:37.173Z,2252.00
2019-05-18T05:32:37.173Z,4440.00
2019-05-18T05:33:37.174Z,4128.00
2019-05-18T05:34:37.152Z,4216.00
2019-05-18T05:35:37.879Z,3352.00
2019-05-18T05:36:37.133Z,2204.00
2019-05-18T05:37:37.145Z,1436.00
2019-05-18T05:38:37.110Z,1096.00
2019-05-18T05:39:37.090Z,1300.00
2019-05-18T05:40:37.068Z,2128.00
2019-05-18T05:41:37.058Z,1708.00
2019-05-18T05:42:37.076Z,2080.00
2019-05-18T05:43:37.034Z,2168.00
2019-05-18T05:44:37.032Z,4136.00
2019-05-18T05:45:37.015Z,6740.00
2019-05-18T05:46:37.559Z,4220.00
2019-05-18T05:47:36.998Z,2788.00
2019-05-18T05:48:37.017Z,1864.00
2019-05-18T05:49:36.966Z,2244.00
2019-05-18T05:50:36.991Z,3328.00
2019-05-18T05:51:36.943Z,3272.00
2019-05-18T05:52:36.949Z,3060.00
2019-05-18T05:53:36.933Z,2184.00
2019-05-18T05:54:36.917Z,3632.00
2019-05-18T05:55:36.897Z,4324.00
2019-05-18T05:56:36.937Z,3700.00
2019-05-18T05:57:36.878Z,4356.00
2019-05-18T05:58:36.919Z,6340.00
2019-05-18T05:59:36.853Z,5884.00
2019-05-18T06:00:36.850Z,4924.00
2019-05-18T06:01:36.831Z,6744.00
2019-05-18T06:02:36.832Z,7576.00
2019-05-18T06:03:36.813Z,8944.00
2019-05-18T06:04:36.810Z,9832.00
2019-05-18T06:05:36.786Z,10996.00
2019-05-18T06:06:36.805Z,9760.00
2019-05-18T06:07:36.764Z,9108.00
2019-05-18T06:08:36.767Z,10116.00
2019-05-18T06:09:43.904Z,10024.00
2019-05-18T06:10:45.444Z,9928.00
2019-05-18T06:11:36.742Z,9248.00
2019-05-18T06:12:36.707Z,9460.00
2019-05-18T06:13:36.709Z,7484.00
2019-05-18T06:14:36.687Z,7264.00
2019-05-18T06:15:36.704Z,9552.00
2019-05-18T06:16:36.666Z,9784.00
2019-05-18T06:17:36.649Z,10656.00
2019-05-18T06:18:45.677Z,10568.00
2019-05-18T06:19:36.674Z,6964.00
2019-05-18T06:20:50.475Z,4996.00
2019-05-18T06:21:37.635Z,4712.00
2019-05-18T06:22:36.640Z,3372.00
2019-05-18T06:23:36.592Z,2928.00
2019-05-18T06:24:36.605Z,3148.00
2019-05-18T06:25:36.574Z,2904.00
2019-05-18T06:26:36.555Z,3744.00
2019-05-18T06:27:36.546Z,3748.00
2019-05-18T06:28:36.526Z,6076.00
2019-05-18T06:29:36.538Z,7128.00
2019-05-18T06:30:36.515Z,3572.00
2019-05-18T06:31:36.507Z,2400.00
2019-05-18T06:32:36.487Z,6408.00
2019-05-18T06:33:36.471Z,11928.00
2019-05-18T06:34:36.463Z,14432.00
2019-05-18T06:35:36.463Z,12428.00
2019-05-18T06:36:36.449Z,11836.00
2019-05-18T06:37:36.439Z,11360.00
2019-05-18T06:38:36.410Z,12016.00
2019-05-18T06:39:36.421Z,12832.00
2019-05-18T06:40:36.390Z,13856.00
2019-05-18T06:41:36.391Z,12688.00
2019-05-18T06:42:36.392Z,12660.00
2019-05-18T06:43:36.372Z,14496.00
2019-05-18T06:44:36.358Z,18880.00
2019-05-18T06:45:36.338Z,19776.00
2019-05-18T06:46:36.323Z,18432.00
2019-05-18T06:47:36.355Z,20096.00
2019-05-18T06:48:36.301Z,26848.00
2019-05-18T06:49:36.305Z,25376.00
2019-05-18T06:50:36.276Z,12720.00
2019-05-18T06:51:36.267Z,2512.00
2019-05-18T06:52:36.260Z,1932.00
2019-05-18T06:53:36.245Z,1772.00
2019-05-18T06:54:36.239Z,1644.00
2019-05-18T06:55:36.280Z,1532.00
2019-05-18T06:56:36.217Z,1492.00
2019-05-18T06:57:36.200Z,1516.00
2019-05-18T06:58:36.201Z,1508.00
2019-05-18T06:59:36.179Z,1512.00
2019-05-18T07:00:36.178Z,1492.00
2019-05-18T07:01:36.182Z,1388.00
2019-05-18T07:02:36.140Z,1440.00
2019-05-18T07:03:36.133Z,1340.00
2019-05-18T07:04:36.125Z,1316.00
2019-05-18T07:05:36.131Z,1372.00
2019-05-18T07:06:36.114Z,1384.00
2019-05-18T07:07:36.126Z,1344.00
2019-05-18T07:08:36.101Z,1264.00
2019-05-18T07:09:36.067Z,1256.00
2019-05-18T07:10:36.057Z,1292.00
2019-05-18T07:11:36.041Z,1324.00
2019-05-18T07:12:36.047Z,1360.00
2019-05-18T07:13:36.038Z,1376.00
2019-05-18T07:14:36.010Z,1372.00
2019-05-18T07:15:35.998Z,1304.00
2019-05-18T07:16:36.025Z,1280.00
2019-05-18T07:17:35.977Z,1252.00
2019-05-18T07:18:35.976Z,1252.00
2019-05-18T07:19:35.952Z,1232.00
2019-05-18T07:20:35.990Z,1248.00
2019-05-18T07:21:35.929Z,1276.00
2019-05-18T07:22:35.934Z,1264.00
2019-05-18T07:23:35.919Z,1264.00
2019-05-18T07:24:35.898Z,1288.00
2019-05-18T07:25:35.886Z,1288.00
2019-05-18T07:26:35.900Z,1292.00
2019-05-18T07:27:35.863Z,1268.00
2019-05-18T07:28:35.854Z,1304.00
2019-05-18T07:29:35.859Z,1452.00
2019-05-18T07:30:35.826Z,1416.00
2019-05-18T07:31:35.816Z,1320.00
2019-05-18T07:32:35.834Z,1164.00
2019-05-18T07:33:35.791Z,900.00
2019-05-18T07:34:35.782Z,1240.00
2019-05-18T07:35:35.784Z,1252.00
2019-05-18T07:36:35.764Z,1372.00
2019-05-18T07:37:35.747Z,1408.00
2019-05-18T07:38:35.765Z,1456.00
2019-05-18T07:39:36.267Z,1456.00
2019-05-18T07:40:35.726Z,1464.00
2019-05-18T07:41:46.290Z,1428.00
2019-05-18T07:42:36.702Z,1236.00
2019-05-18T07:43:35.684Z,1296.00
2019-05-18T07:44:35.709Z,1524.00
2019-05-18T07:45:35.673Z,1316.00
2019-05-18T07:46:35.672Z,1524.00
2019-05-18T07:47:35.638Z,1364.00
2019-05-18T07:48:35.626Z,1292.00
2019-05-18T07:49:35.670Z,1416.00
2019-05-18T07:50:35.605Z,1356.00
2019-05-18T07:51:37.279Z,1476.00
2019-05-18T07:52:35.612Z,1460.00
2019-05-18T07:53:35.584Z,1496.00
2019-05-18T07:54:35.561Z,1508.00
2019-05-18T07:55:35.589Z,1596.00
2019-05-18T07:56:35.532Z,1624.00
2019-05-18T07:57:35.537Z,1668.00
2019-05-18T07:58:35.513Z,1728.00
2019-05-18T07:59:35.499Z,1716.00
2019-05-18T08:00:35.539Z,1816.00
2019-05-18T08:01:35.480Z,1920.00
2019-05-18T08:02:35.484Z,2016.00
2019-05-18T08:03:35.462Z,2116.00
2019-05-18T08:04:35.445Z,1984.00
2019-05-18T08:05:35.433Z,1960.00
2019-05-18T08:06:35.455Z,1860.00
2019-05-18T08:07:35.424Z,1788.00
2019-05-18T08:08:35.399Z,2024.00
2019-05-18T08:09:35.392Z,2048.00
2019-05-18T08:10:35.378Z,2020.00
2019-05-18T08:11:35.380Z,2112.00
2019-05-18T08:12:35.403Z,2220.00
2019-05-18T08:13:35.350Z,2176.00
2019-05-18T08:14:35.328Z,2072.00
2019-05-18T08:15:35.322Z,2308.00
2019-05-18T08:16:35.310Z,2268.00
2019-05-18T08:17:35.307Z,2280.00
2019-05-18T08:18:35.320Z,2328.00
2019-05-18T08:19:35.276Z,2464.00
2019-05-18T08:20:35.278Z,2356.00
2019-05-18T08:21:35.275Z,1888.00
2019-05-18T08:22:35.245Z,1704.00
2019-05-18T08:23:35.236Z,1556.00
2019-05-18T08:24:35.290Z,1588.00
2019-05-18T08:25:35.205Z,1652.00
2019-05-18T08:26:35.196Z,1948.00
2019-05-18T08:27:35.194Z,2360.00
2019-05-18T08:28:35.215Z,2700.00
2019-05-18T08:29:35.172Z,2816.00
2019-05-18T08:30:35.151Z,2996.00
2019-05-18T08:31:35.177Z,2940.00
2019-05-18T08:32:35.145Z,2224.00
2019-05-18T08:33:35.117Z,1904.00
2019-05-18T08:34:35.129Z,1872.00
2019-05-18T08:35:35.092Z,1864.00
2019-05-18T08:36:35.083Z,1884.00
2019-05-18T08:37:35.105Z,1628.00
2019-05-18T08:38:35.074Z,1864.00
2019-05-18T08:39:35.053Z,1552.00
2019-05-18T08:40:35.039Z,1624.00
2019-05-18T08:41:35.024Z,1680.00
2019-05-18T08:42:35.022Z,1872.00
2019-05-18T08:43:35.046Z,1560.00
2019-05-18T08:44:35.019Z,1496.00
2019-05-18T08:45:35.001Z,1380.00
2019-05-18T08:46:34.969Z,1596.00
2019-05-18T08:47:34.961Z,1688.00
2019-05-18T08:48:34.953Z,1364.00
2019-05-18T08:49:34.938Z,1328.00
2019-05-18T08:50:34.959Z,1280.00
2019-05-18T08:51:34.909Z,1312.00
2019-05-18T08:52:35.186Z,1272.00
2019-05-18T08:53:34.889Z,1308.00
2019-05-18T08:54:34.889Z,1376.00
2019-05-18T08:55:34.887Z,1424.00
2019-05-18T08:56:34.890Z,1476.00
2019-05-18T08:57:34.845Z,1408.00
2019-05-18T08:58:34.836Z,1344.00
2019-05-18T08:59:34.823Z,1484.00
2019-05-18T09:00:34.815Z,1592.00
2019-05-18T09:01:34.856Z,1632.00
2019-05-18T09:02:34.814Z,1844.00
2019-05-18T09:03:34.777Z,1580.00
2019-05-18T09:04:34.772Z,1668.00
2019-05-18T09:05:34.759Z,1708.00
2019-05-18T09:06:34.758Z,1676.00
2019-05-18T09:07:34.732Z,1736.00
2019-05-18T09:08:34.742Z,1560.00
2019-05-18T09:09:34.710Z,1716.00
2019-05-18T09:10:34.705Z,1668.00
2019-05-18T09:11:34.715Z,1796.00
2019-05-18T09:12:34.678Z,2036.00
2019-05-18T09:13:34.666Z,2040.00
2019-05-18T09:14:34.671Z,2016.00
2019-05-18T09:15:34.644Z,2360.00
2019-05-18T09:16:34.662Z,2444.00
2019-05-18T09:17:34.621Z,2896.00
2019-05-18T09:18:34.608Z,2448.00
2019-05-18T09:19:34.653Z,2936.00
2019-05-18T09:20:34.617Z,2896.00
2019-05-18T09:21:34.581Z,3004.00
2019-05-18T09:22:34.579Z,2736.00
2019-05-18T09:23:34.581Z,2732.00
2019-05-18T09:24:34.543Z,2640.00
2019-05-18T09:25:34.549Z,2496.00
2019-05-18T09:26:34.519Z,2456.00
2019-05-18T09:27:34.513Z,2496.00
2019-05-18T09:28:34.547Z,2504.00
2019-05-18T09:29:34.489Z,2452.00
2019-05-18T09:30:34.479Z,2232.00
2019-05-18T09:31:34.496Z,2408.00
2019-05-18T09:32:34.475Z,2432.00
2019-05-18T09:33:34.442Z,2292.00
2019-05-18T09:34:34.455Z,2316.00
2019-05-18T09:35:34.422Z,2448.00
2019-05-18T09:36:34.455Z,2464.00
2019-05-18T09:37:34.445Z,2372.00
2019-05-18T09:38:34.389Z,2304.00
2019-05-18T09:39:34.396Z,2332.00
2019-05-18T09:40:34.383Z,2456.00
2019-05-18T09:41:34.357Z,2512.00
2019-05-18T09:42:34.344Z,2712.00
2019-05-18T09:43:34.352Z,2452.00
2019-05-18T09:44:34.322Z,2404.00
2019-05-18T09:45:34.326Z,2396.00
2019-05-18T09:46:34.296Z,2376.00
2019-05-18T09:47:34.287Z,2284.00
2019-05-18T09:48:34.333Z,2252.00
2019-05-18T09:49:34.301Z,2328.00
2019-05-18T09:50:34.260Z,2448.00
2019-05-18T09:51:34.345Z,2204.00
2019-05-18T09:52:44.953Z,2456.00
2019-05-18T09:53:35.220Z,2552.00
2019-05-18T09:54:34.243Z,2616.00
2019-05-18T09:55:34.214Z,2456.00
2019-05-18T09:56:34.194Z,1864.00
2019-05-18T09:57:34.210Z,2248.00
2019-05-18T09:58:34.169Z,1784.00
2019-05-18T09:59:34.209Z,1748.00
2019-05-18T10:00:38.512Z,2588.00
2019-05-18T10:01:35.144Z,3020.00
2019-05-18T10:02:34.123Z,3744.00
2019-05-18T10:03:34.175Z,3516.00
2019-05-18T10:04:34.113Z,3348.00
2019-05-18T10:05:34.092Z,3120.00
2019-05-18T10:06:34.081Z,2468.00
2019-05-18T10:07:34.069Z,1852.00
2019-05-18T10:08:34.075Z,2936.00
2019-05-18T10:09:39.315Z,2620.00
2019-05-18T10:10:35.031Z,3236.00
2019-05-18T10:11:38.391Z,3460.00
2019-05-18T10:12:34.006Z,3060.00
2019-05-18T10:13:34.013Z,3068.00
2019-05-18T10:14:34.002Z,2504.00
2019-05-18T10:15:34.024Z,3340.00
2019-05-18T10:16:33.988Z,3624.00
2019-05-18T10:17:33.951Z,3272.00
2019-05-18T10:18:33.949Z,3352.00
2019-05-18T10:19:33.935Z,3408.00
2019-05-18T10:20:33.921Z,3268.00
2019-05-18T10:21:33.930Z,3280.00
2019-05-18T10:22:33.907Z,3112.00
2019-05-18T10:23:33.893Z,3180.00
2019-05-18T10:24:33.878Z,3020.00
2019-05-18T10:25:33.866Z,3348.00
2019-05-18T10:26:33.866Z,3212.00
2019-05-18T10:27:33.842Z,2996.00
2019-05-18T10:28:33.861Z,2596.00
2019-05-18T10:29:33.824Z,3156.00
2019-05-18T10:30:33.812Z,3700.00
2019-05-18T10:31:33.794Z,3168.00
2019-05-18T10:32:33.798Z,1540.00
2019-05-18T10:33:33.774Z,1492.00
2019-05-18T10:34:33.798Z,1916.00
2019-05-18T10:35:33.804Z,1780.00
2019-05-18T10:36:33.770Z,1648.00
2019-05-18T10:37:33.731Z,2896.00
2019-05-18T10:38:33.736Z,2440.00
2019-05-18T10:39:33.706Z,2344.00
2019-05-18T10:40:33.716Z,2244.00
2019-05-18T10:41:33.692Z,2140.00
2019-05-18T10:42:33.679Z,1788.00
2019-05-18T10:43:33.672Z,2000.00
2019-05-18T10:44:33.665Z,1924.00
2019-05-18T10:45:33.662Z,2560.00
2019-05-18T10:46:33.629Z,1620.00
2019-05-18T10:47:33.628Z,1480.00
2019-05-18T10:48:33.607Z,1616.00
2019-05-18T10:49:33.594Z,2372.00
2019-05-18T10:50:33.594Z,1708.00
2019-05-18T10:51:33.605Z,1772.00
2019-05-18T10:52:33.568Z,1688.00
2019-05-18T10:53:33.547Z,1568.00
2019-05-18T10:54:33.552Z,2200.00
2019-05-18T10:55:33.546Z,2256.00
2019-05-18T10:56:33.519Z,3032.00
2019-05-18T10:57:33.544Z,3080.00
2019-05-18T10:58:33.495Z,2848.00
2019-05-18T10:59:33.487Z,3268.00
2019-05-18T11:00:33.473Z,2720.00
2019-05-18T11:01:33.474Z,3344.00
2019-05-18T11:02:33.454Z,3204.00
2019-05-18T11:03:33.468Z,3384.00
2019-05-18T11:04:33.447Z,3140.00
2019-05-18T11:05:33.416Z,3224.00
2019-05-18T11:06:33.415Z,3284.00
2019-05-18T11:07:33.412Z,2972.00
2019-05-18T11:08:33.383Z,3064.00
2019-05-18T11:09:33.375Z,3328.00
2019-05-18T11:10:33.399Z,3060.00
2019-05-18T11:11:33.349Z,3136.00
2019-05-18T11:12:33.350Z,3124.00
2019-05-18T11:13:33.343Z,3088.00
2019-05-18T11:14:33.322Z,3328.00
2019-05-18T11:15:33.303Z,2864.00
2019-05-18T11:16:33.318Z,3236.00
2019-05-18T11:17:33.284Z,3200.00
2019-05-18T11:18:33.285Z,3232.00
2019-05-18T11:19:33.281Z,3548.00
2019-05-18T11:20:33.246Z,3160.00
2019-05-18T11:21:33.239Z,3264.00
2019-05-18T11:22:33.245Z,2968.00
2019-05-18T11:23:43.276Z,2956.00
2019-05-18T11:24:34.219Z,3228.00
2019-05-18T11:25:33.192Z,2948.00
2019-05-18T11:26:33.184Z,3288.00
2019-05-18T11:27:33.171Z,3132.00
2019-05-18T11:28:33.182Z,2988.00
2019-05-18T11:29:33.151Z,3216.00
2019-05-18T11:30:33.144Z,3316.00
2019-05-18T11:31:33.127Z,3056.00
2019-05-18T11:32:33.111Z,3552.00
2019-05-18T11:33:33.112Z,3056.00
2019-05-18T11:34:33.111Z,3104.00
2019-05-18T11:35:33.090Z,3016.00
2019-05-18T11:36:33.064Z,2916.00
2019-05-18T11:37:33.068Z,1096.00
2019-05-18T11:38:33.055Z,2052.00
2019-05-18T11:39:33.034Z,940.00
2019-05-18T11:40:33.044Z,888.00
2019-05-18T11:41:33.024Z,2220.00
2019-05-18T11:42:33.003Z,2936.00
2019-05-18T11:43:32.986Z,3176.00
2019-05-18T11:44:32.995Z,2952.00
2019-05-18T11:45:32.967Z,3156.00
2019-05-18T11:46:32.994Z,2988.00
2019-05-18T11:47:32.946Z,2984.00
2019-05-18T11:48:32.935Z,3088.00
2019-05-18T11:49:32.926Z,3004.00
2019-05-18T11:50:32.925Z,3372.00
2019-05-18T11:51:32.910Z,3328.00
2019-05-18T11:52:32.924Z,2976.00
2019-05-18T11:53:32.874Z,3160.00
2019-05-18T11:54:32.864Z,1268.00
2019-05-18T11:55:32.869Z,3144.00
2019-05-18T11:56:32.844Z,3044.00
2019-05-18T11:57:32.829Z,1616.00
2019-05-18T11:58:32.857Z,1196.00
2019-05-18T11:59:32.807Z,1072.00
2019-05-18T12:00:32.802Z,1216.00
2019-05-18T12:01:32.785Z,2584.00
2019-05-18T12:02:32.773Z,2692.00
2019-05-18T12:03:32.776Z,2680.00
2019-05-18T12:04:32.749Z,2896.00
2019-05-18T12:05:32.753Z,2196.00
2019-05-18T12:06:32.766Z,1584.00
2019-05-18T12:07:32.721Z,1064.00
2019-05-18T12:08:32.703Z,2836.00
2019-05-18T12:09:32.699Z,1048.00
2019-05-18T12:10:32.746Z,956.00
2019-05-18T12:11:32.668Z,916.00
2019-05-18T12:12:32.667Z,1164.00
2019-05-18T12:13:32.675Z,2684.00
2019-05-18T12:14:32.636Z,1008.00
2019-05-18T12:15:32.627Z,1828.00
2019-05-18T12:16:32.626Z,1064.00
2019-05-18T12:17:32.603Z,824.00
2019-05-18T12:18:32.589Z,888.00
2019-05-18T12:19:32.603Z,816.00
2019-05-18T12:20:32.734Z,800.00
2019-05-18T12:21:32.784Z,868.00
2019-05-18T12:22:32.602Z,1160.00
2019-05-18T12:23:32.560Z,2728.00
2019-05-18T12:24:32.579Z,2764.00
2019-05-18T12:25:32.529Z,3008.00
2019-05-18T12:26:32.522Z,2964.00
2019-05-18T12:27:32.515Z,2852.00
2019-05-18T12:28:32.499Z,2996.00
2019-05-18T12:29:32.487Z,2644.00